sensor_id;sensor_type;location;lat;lon;timestamp;pressure;altitude;pressure_sealevel;temperature;humidity
24280;BME280;12395;42.808;23.408;2023-04-27T00:01:09;94572.72;;;7.16;80.36
24280;BME280;12395;42.808;23.408;2023-04-27T00:03:36;94564.13;;;7.01;80.61
24280;BME280;12395;42.808;23.408;2023-04-27T00:06:01;94581.31;;;6.97;78.62
24280;BME280;12395;42.808;23.408;2023-04-27T00:08:27;94572.00;;;6.94;79.39
24280;BME280;12395;42.808;23.408;2023-04-27T00:10:53;94579.44;;;6.91;78.52
24280;BME280;12395;42.808;23.408;2023-04-27T00:13:18;94570.19;;;6.74;79.63
24280;BME280;12395;42.808;23.408;2023-04-27T00:15:44;94576.75;;;6.84;80.83
24280;BME280;12395;42.808;23.408;2023-04-27T00:18:09;94578.59;;;6.84;80.90
24280;BME280;12395;42.808;23.408;2023-04-27T00:20:35;94587.66;;;6.75;80.52
24280;BME280;12395;42.808;23.408;2023-04-27T00:23:00;94576.69;;;6.71;80.63
24280;BME280;12395;42.808;23.408;2023-04-27T00:25:26;94577.69;;;6.70;82.80
24280;BME280;12395;42.808;23.408;2023-04-27T00:27:51;94589.72;;;6.79;82.12
24280;BME280;12395;42.808;23.408;2023-04-27T00:30:17;94561.16;;;6.55;81.79
24280;BME280;12395;42.808;23.408;2023-04-27T00:32:42;94576.34;;;6.53;81.21
24280;BME280;12395;42.808;23.408;2023-04-27T00:35:08;94585.28;;;6.59;81.44
24280;BME280;12395;42.808;23.408;2023-04-27T00:37:34;94564.41;;;6.30;83.68
24280;BME280;12395;42.808;23.408;2023-04-27T00:39:59;94585.09;;;6.33;85.23
24280;BME280;12395;42.808;23.408;2023-04-27T00:42:25;94585.81;;;6.27;85.97
24280;BME280;12395;42.808;23.408;2023-04-27T00:44:50;94587.59;;;6.19;85.98
24280;BME280;12395;42.808;23.408;2023-04-27T00:47:16;94589.34;;;6.12;87.95
24280;BME280;12395;42.808;23.408;2023-04-27T00:49:42;94569.66;;;5.87;88.46
24280;BME280;12395;42.808;23.408;2023-04-27T00:52:08;94572.66;;;5.84;88.38
24280;BME280;12395;42.808;23.408;2023-04-27T00:54:33;94592.94;;;5.90;90.40
24280;BME280;12395;42.808;23.408;2023-04-27T00:56:59;94590.97;;;5.78;92.23
24280;BME280;12395;42.808;23.408;2023-04-27T00:59:24;94584.13;;;5.62;93.97
24280;BME280;12395;42.808;23.408;2023-04-27T01:01:50;94583.50;;;5.45;93.87
24280;BME280;12395;42.808;23.408;2023-04-27T01:04:15;94580.00;;;5.24;94.74
24280;BME280;12395;42.808;23.408;2023-04-27T01:06:42;94584.00;;;5.20;95.73
24280;BME280;12395;42.808;23.408;2023-04-27T01:09:08;94581.03;;;5.08;96.81
24280;BME280;12395;42.808;23.408;2023-04-27T01:11:33;94581.91;;;5.01;97.05
24280;BME280;12395;42.808;23.408;2023-04-27T01:14:03;94596.88;;;5.15;97.82
24280;BME280;12395;42.808;23.408;2023-04-27T01:16:29;94591.53;;;5.08;97.76
24280;BME280;12395;42.808;23.408;2023-04-27T01:18:56;94595.66;;;4.88;98.47
24280;BME280;12395;42.808;23.408;2023-04-27T01:21:21;94589.78;;;4.86;98.24
24280;BME280;12395;42.808;23.408;2023-04-27T01:23:46;94605.63;;;4.93;97.67
24280;BME280;12395;42.808;23.408;2023-04-27T01:26:12;94594.78;;;4.81;98.44
24280;BME280;12395;42.808;23.408;2023-04-27T01:28:40;94590.22;;;4.75;98.90
24280;BME280;12395;42.808;23.408;2023-04-27T01:31:05;94603.53;;;4.74;99.04
24280;BME280;12395;42.808;23.408;2023-04-27T01:33:31;94599.09;;;4.59;99.69
24280;BME280;12395;42.808;23.408;2023-04-27T01:35:56;94617.91;;;4.63;100.00
24280;BME280;12395;42.808;23.408;2023-04-27T01:38:22;94616.97;;;4.56;100.00
24280;BME280;12395;42.808;23.408;2023-04-27T01:40:48;94613.97;;;4.44;100.00
24280;BME280;12395;42.808;23.408;2023-04-27T01:43:14;94598.66;;;4.33;100.00
24280;BME280;12395;42.808;23.408;2023-04-27T01:45:39;94607.47;;;4.40;100.00
24280;BME280;12395;42.808;23.408;2023-04-27T01:48:05;94600.47;;;4.33;100.00
24280;BME280;12395;42.808;23.408;2023-04-27T01:50:30;94612.59;;;4.34;100.00
24280;BME280;12395;42.808;23.408;2023-04-27T01:52:56;94602.59;;;4.15;100.00
24280;BME280;12395;42.808;23.408;2023-04-27T01:55:21;94615.53;;;4.16;100.00
24280;BME280;12395;42.808;23.408;2023-04-27T01:57:47;94605.09;;;4.08;100.00
24280;BME280;12395;42.808;23.408;2023-04-27T02:00:12;94597.63;;;3.97;100.00
24280;BME280;12395;42.808;23.408;2023-04-27T02:02:38;94600.72;;;4.01;100.00
24280;BME280;12395;42.808;23.408;2023-04-27T02:05:03;94589.78;;;3.97;100.00
24280;BME280;12395;42.808;23.408;2023-04-27T02:07:29;94608.63;;;4.15;100.00
24280;BME280;12395;42.808;23.408;2023-04-27T02:09:54;94608.34;;;4.10;100.00
24280;BME280;12395;42.808;23.408;2023-04-27T02:12:20;94603.97;;;4.03;100.00
24280;BME280;12395;42.808;23.408;2023-04-27T02:14:45;94601.19;;;4.04;100.00
24280;BME280;12395;42.808;23.408;2023-04-27T02:17:10;94605.63;;;4.04;100.00
24280;BME280;12395;42.808;23.408;2023-04-27T02:19:36;94610.75;;;3.97;100.00
24280;BME280;12395;42.808;23.408;2023-04-27T02:22:02;94610.94;;;3.96;100.00
24280;BME280;12395;42.808;23.408;2023-04-27T02:24:28;94607.19;;;3.90;100.00
24280;BME280;12395;42.808;23.408;2023-04-27T02:26:54;94602.94;;;3.89;100.00
24280;BME280;12395;42.808;23.408;2023-04-27T02:29:19;94620.66;;;3.87;100.00
24280;BME280;12395;42.808;23.408;2023-04-27T02:31:45;94615.09;;;3.82;100.00
24280;BME280;12395;42.808;23.408;2023-04-27T02:34:10;94611.91;;;3.72;100.00
24280;BME280;12395;42.808;23.408;2023-04-27T02:36:36;94627.25;;;3.75;100.00
24280;BME280;12395;42.808;23.408;2023-04-27T02:39:01;94626.97;;;3.70;100.00
24280;BME280;12395;42.808;23.408;2023-04-27T02:41:30;94632.03;;;3.71;100.00
24280;BME280;12395;42.808;23.408;2023-04-27T02:43:56;94622.25;;;3.57;100.00
24280;BME280;12395;42.808;23.408;2023-04-27T02:46:21;94632.59;;;3.59;100.00
24280;BME280;12395;42.808;23.408;2023-04-27T02:48:47;94628.69;;;3.47;100.00
24280;BME280;12395;42.808;23.408;2023-04-27T02:51:12;94624.97;;;3.41;100.00
24280;BME280;12395;42.808;23.408;2023-04-27T02:53:38;94620.75;;;3.32;100.00
24280;BME280;12395;42.808;23.408;2023-04-27T02:56:03;94638.91;;;3.34;100.00
24280;BME280;12395;42.808;23.408;2023-04-27T02:58:29;94618.50;;;3.21;100.00
24280;BME280;12395;42.808;23.408;2023-04-27T03:00:55;94653.31;;;3.30;100.00
24280;BME280;12395;42.808;23.408;2023-04-27T03:03:21;94643.72;;;3.22;100.00
24280;BME280;12395;42.808;23.408;2023-04-27T03:05:47;94646.84;;;3.18;100.00
24280;BME280;12395;42.808;23.408;2023-04-27T03:08:12;94635.41;;;3.10;100.00
24280;BME280;12395;42.808;23.408;2023-04-27T03:10:37;94639.47;;;3.13;100.00
24280;BME280;12395;42.808;23.408;2023-04-27T03:13:03;94648.19;;;2.97;100.00
24280;BME280;12395;42.808;23.408;2023-04-27T03:15:28;94644.59;;;2.98;100.00
24280;BME280;12395;42.808;23.408;2023-04-27T03:17:54;94654.41;;;2.96;100.00
24280;BME280;12395;42.808;23.408;2023-04-27T03:20:20;94652.63;;;2.97;100.00
24280;BME280;12395;42.808;23.408;2023-04-27T03:22:45;94648.84;;;2.91;100.00
24280;BME280;12395;42.808;23.408;2023-04-27T03:25:11;94659.66;;;2.96;100.00
24280;BME280;12395;42.808;23.408;2023-04-27T03:27:36;94647.53;;;2.95;100.00
24280;BME280;12395;42.808;23.408;2023-04-27T03:30:02;94668.63;;;3.02;100.00
24280;BME280;12395;42.808;23.408;2023-04-27T03:32:28;94663.88;;;3.05;100.00
24280;BME280;12395;42.808;23.408;2023-04-27T03:34:54;94669.09;;;3.13;100.00
24280;BME280;12395;42.808;23.408;2023-04-27T03:37:20;94662.56;;;3.09;100.00
24280;BME280;12395;42.808;23.408;2023-04-27T03:39:46;94676.09;;;3.21;100.00
24280;BME280;12395;42.808;23.408;2023-04-27T03:42:11;94664.19;;;3.10;100.00
24280;BME280;12395;42.808;23.408;2023-04-27T03:44:36;94663.38;;;3.02;100.00
24280;BME280;12395;42.808;23.408;2023-04-27T03:47:02;94664.53;;;3.07;100.00
24280;BME280;12395;42.808;23.408;2023-04-27T03:49:28;94669.28;;;3.12;100.00
24280;BME280;12395;42.808;23.408;2023-04-27T03:51:53;94671.72;;;3.13;100.00
24280;BME280;12395;42.808;23.408;2023-04-27T03:54:18;94683.97;;;3.13;100.00
24280;BME280;12395;42.808;23.408;2023-04-27T03:56:44;94673.34;;;3.06;100.00
24280;BME280;12395;42.808;23.408;2023-04-27T03:59:09;94676.31;;;3.03;100.00
24280;BME280;12395;42.808;23.408;2023-04-27T04:01:35;94688.59;;;3.03;100.00
24280;BME280;12395;42.808;23.408;2023-04-27T04:04:01;94686.16;;;3.01;100.00
24280;BME280;12395;42.808;23.408;2023-04-27T04:06:27;94694.91;;;3.17;100.00
24280;BME280;12395;42.808;23.408;2023-04-27T04:08:53;94686.56;;;3.21;100.00
24280;BME280;12395;42.808;23.408;2023-04-27T04:11:19;94708.63;;;3.35;100.00
24280;BME280;12395;42.808;23.408;2023-04-27T04:13:44;94712.22;;;3.42;100.00
24280;BME280;12395;42.808;23.408;2023-04-27T04:16:10;94704.66;;;3.47;100.00
24280;BME280;12395;42.808;23.408;2023-04-27T04:18:35;94715.13;;;3.55;100.00
24280;BME280;12395;42.808;23.408;2023-04-27T04:21:02;94721.28;;;3.62;100.00
24280;BME280;12395;42.808;23.408;2023-04-27T04:23:28;94711.63;;;3.62;100.00
24280;BME280;12395;42.808;23.408;2023-04-27T04:25:54;94703.09;;;3.68;100.00
24280;BME280;12395;42.808;23.408;2023-04-27T04:28:21;94725.78;;;3.84;100.00
24280;BME280;12395;42.808;23.408;2023-04-27T04:30:46;94738.53;;;3.95;100.00
24280;BME280;12395;42.808;23.408;2023-04-27T04:33:12;94732.13;;;3.98;100.00
24280;BME280;12395;42.808;23.408;2023-04-27T04:35:38;94723.06;;;4.08;98.36
24280;BME280;12395;42.808;23.408;2023-04-27T04:38:04;94731.19;;;4.21;97.86
24280;BME280;12395;42.808;23.408;2023-04-27T04:40:30;94741.25;;;4.32;96.39
24280;BME280;12395;42.808;23.408;2023-04-27T04:42:55;94723.84;;;4.39;94.89
24280;BME280;12395;42.808;23.408;2023-04-27T04:45:22;94736.16;;;4.61;93.73
24280;BME280;12395;42.808;23.408;2023-04-27T04:47:50;94750.41;;;4.82;92.63
24280;BME280;12395;42.808;23.408;2023-04-27T04:50:18;94750.00;;;4.93;91.99
24280;BME280;12395;42.808;23.408;2023-04-27T04:52:43;94751.28;;;4.97;91.63
24280;BME280;12395;42.808;23.408;2023-04-27T04:55:09;94759.06;;;5.05;91.74
24280;BME280;12395;42.808;23.408;2023-04-27T04:57:35;94734.91;;;5.09;91.36
24280;BME280;12395;42.808;23.408;2023-04-27T05:00:00;94755.41;;;5.28;88.72
24280;BME280;12395;42.808;23.408;2023-04-27T05:02:26;94767.78;;;5.42;88.43
24280;BME280;12395;42.808;23.408;2023-04-27T05:04:51;94748.28;;;5.37;88.61
24280;BME280;12395;42.808;23.408;2023-04-27T05:07:17;94752.47;;;5.46;87.43
24280;BME280;12395;42.808;23.408;2023-04-27T05:09:42;94768.97;;;5.69;88.34
24280;BME280;12395;42.808;23.408;2023-04-27T05:12:08;94773.78;;;5.80;86.43
24280;BME280;12395;42.808;23.408;2023-04-27T05:14:34;94769.97;;;5.83;86.02
24280;BME280;12395;42.808;23.408;2023-04-27T05:17:00;94762.56;;;5.86;85.95
24280;BME280;12395;42.808;23.408;2023-04-27T05:19:28;94764.19;;;6.02;85.55
24280;BME280;12395;42.808;23.408;2023-04-27T05:21:53;94782.47;;;6.24;84.67
24280;BME280;12395;42.808;23.408;2023-04-27T05:24:18;94760.56;;;6.17;81.46
24280;BME280;12395;42.808;23.408;2023-04-27T05:26:44;94772.31;;;6.36;80.80
24280;BME280;12395;42.808;23.408;2023-04-27T05:29:09;94791.94;;;6.55;79.13
24280;BME280;12395;42.808;23.408;2023-04-27T05:31:35;94787.50;;;6.55;78.05
24280;BME280;12395;42.808;23.408;2023-04-27T05:34:00;94779.75;;;6.68;79.07
24280;BME280;12395;42.808;23.408;2023-04-27T05:36:26;94787.03;;;6.87;78.05
24280;BME280;12395;42.808;23.408;2023-04-27T05:38:53;94796.31;;;7.05;77.33
24280;BME280;12395;42.808;23.408;2023-04-27T05:41:18;94799.50;;;7.21;76.86
24280;BME280;12395;42.808;23.408;2023-04-27T05:43:43;94777.44;;;7.22;76.25
24280;BME280;12395;42.808;23.408;2023-04-27T05:46:12;94789.50;;;7.38;75.88
24280;BME280;12395;42.808;23.408;2023-04-27T05:48:37;94789.56;;;7.44;73.59
24280;BME280;12395;42.808;23.408;2023-04-27T05:51:03;94799.44;;;7.63;73.32
24280;BME280;12395;42.808;23.408;2023-04-27T05:53:29;94800.22;;;7.57;70.29
24280;BME280;12395;42.808;23.408;2023-04-27T05:55:55;94804.72;;;7.63;72.23
24280;BME280;12395;42.808;23.408;2023-04-27T05:58:23;94796.84;;;7.70;72.71
24280;BME280;12395;42.808;23.408;2023-04-27T06:00:48;94804.44;;;7.79;70.74
24280;BME280;12395;42.808;23.408;2023-04-27T06:03:14;94803.41;;;7.80;71.59
24280;BME280;12395;42.808;23.408;2023-04-27T06:05:40;94803.66;;;7.86;68.46
24280;BME280;12395;42.808;23.408;2023-04-27T06:08:05;94798.41;;;7.86;68.87
24280;BME280;12395;42.808;23.408;2023-04-27T06:10:31;94799.25;;;7.93;69.12
24280;BME280;12395;42.808;23.408;2023-04-27T06:12:56;94804.13;;;7.96;70.14
24280;BME280;12395;42.808;23.408;2023-04-27T06:15:22;94800.13;;;8.00;68.99
24280;BME280;12395;42.808;23.408;2023-04-27T06:17:47;94792.88;;;8.08;68.87
24280;BME280;12395;42.808;23.408;2023-04-27T06:20:12;94797.78;;;8.18;68.51
24280;BME280;12395;42.808;23.408;2023-04-27T06:22:38;94793.91;;;8.14;69.40
24280;BME280;12395;42.808;23.408;2023-04-27T06:25:04;94793.91;;;8.14;69.00
24280;BME280;12395;42.808;23.408;2023-04-27T06:27:30;94791.03;;;8.09;69.79
24280;BME280;12395;42.808;23.408;2023-04-27T06:29:57;94790.28;;;8.21;69.11
24280;BME280;12395;42.808;23.408;2023-04-27T06:32:22;94789.28;;;8.22;67.38
24280;BME280;12395;42.808;23.408;2023-04-27T06:34:48;94801.13;;;8.33;65.42
24280;BME280;12395;42.808;23.408;2023-04-27T06:37:14;94789.41;;;8.42;67.85
24280;BME280;12395;42.808;23.408;2023-04-27T06:39:42;94781.66;;;8.40;67.49
24280;BME280;12395;42.808;23.408;2023-04-27T06:42:07;94788.63;;;8.54;67.49
24280;BME280;12395;42.808;23.408;2023-04-27T06:44:33;94790.28;;;8.62;65.92
24280;BME280;12395;42.808;23.408;2023-04-27T06:46:58;94798.44;;;8.67;63.28
24280;BME280;12395;42.808;23.408;2023-04-27T06:49:23;94793.59;;;8.77;63.04
24280;BME280;12395;42.808;23.408;2023-04-27T06:51:49;94802.97;;;8.86;61.22
24280;BME280;12395;42.808;23.408;2023-04-27T06:54:15;94792.41;;;8.86;61.83
24280;BME280;12395;42.808;23.408;2023-04-27T06:56:40;94781.25;;;8.97;60.72
24280;BME280;12395;42.808;23.408;2023-04-27T06:59:07;94784.53;;;9.12;62.37
24280;BME280;12395;42.808;23.408;2023-04-27T07:01:32;94782.28;;;9.22;58.66
24280;BME280;12395;42.808;23.408;2023-04-27T07:03:58;94784.75;;;9.44;61.24
24280;BME280;12395;42.808;23.408;2023-04-27T07:06:23;94782.50;;;9.67;61.08
24280;BME280;12395;42.808;23.408;2023-04-27T07:08:50;94783.13;;;9.69;57.38
24280;BME280;12395;42.808;23.408;2023-04-27T07:11:15;94787.19;;;9.78;59.61
24280;BME280;12395;42.808;23.408;2023-04-27T07:13:41;94789.59;;;9.92;57.32
24280;BME280;12395;42.808;23.408;2023-04-27T07:16:06;94782.25;;;9.94;56.39
24280;BME280;12395;42.808;23.408;2023-04-27T07:18:32;94777.56;;;10.03;57.39
24280;BME280;12395;42.808;23.408;2023-04-27T07:20:57;94780.00;;;10.31;56.88
24280;BME280;12395;42.808;23.408;2023-04-27T07:23:23;94778.84;;;10.64;56.87
24280;BME280;12395;42.808;23.408;2023-04-27T07:25:49;94775.41;;;10.95;55.11
24280;BME280;12395;42.808;23.408;2023-04-27T07:28:14;94794.53;;;11.04;54.20
24280;BME280;12395;42.808;23.408;2023-04-27T07:30:40;94782.31;;;11.34;54.94
24280;BME280;12395;42.808;23.408;2023-04-27T07:33:07;94778.09;;;11.51;52.39
24280;BME280;12395;42.808;23.408;2023-04-27T07:35:32;94782.69;;;11.44;51.24
24280;BME280;12395;42.808;23.408;2023-04-27T07:37:59;94780.84;;;11.38;50.63
24280;BME280;12395;42.808;23.408;2023-04-27T07:40:28;94785.06;;;11.52;49.97
24280;BME280;12395;42.808;23.408;2023-04-27T07:42:55;94788.00;;;11.69;51.42
24280;BME280;12395;42.808;23.408;2023-04-27T07:45:20;94777.63;;;11.60;50.09
24280;BME280;12395;42.808;23.408;2023-04-27T07:47:47;94775.19;;;11.34;50.62
24280;BME280;12395;42.808;23.408;2023-04-27T07:50:12;94789.97;;;11.48;49.70
24280;BME280;12395;42.808;23.408;2023-04-27T07:52:42;94771.59;;;11.22;49.75
24280;BME280;12395;42.808;23.408;2023-04-27T07:55:07;94784.59;;;11.30;48.93
24280;BME280;12395;42.808;23.408;2023-04-27T07:57:34;94773.56;;;11.58;50.12
24280;BME280;12395;42.808;23.408;2023-04-27T07:59:59;94781.19;;;11.79;52.01
24280;BME280;12395;42.808;23.408;2023-04-27T08:02:28;94780.84;;;11.94;52.25
24280;BME280;12395;42.808;23.408;2023-04-27T08:04:58;94789.78;;;11.99;50.97
24280;BME280;12395;42.808;23.408;2023-04-27T08:07:23;94772.72;;;12.31;52.04
24280;BME280;12395;42.808;23.408;2023-04-27T08:09:50;94777.88;;;12.63;49.71
24280;BME280;12395;42.808;23.408;2023-04-27T08:12:16;94787.31;;;12.59;49.70
24280;BME280;12395;42.808;23.408;2023-04-27T08:14:41;94755.28;;;12.54;50.96
24280;BME280;12395;42.808;23.408;2023-04-27T08:17:07;94768.41;;;12.67;51.25
24280;BME280;12395;42.808;23.408;2023-04-27T08:19:32;94783.03;;;12.58;51.17
24280;BME280;12395;42.808;23.408;2023-04-27T08:21:57;94785.03;;;12.26;47.62
24280;BME280;12395;42.808;23.408;2023-04-27T08:24:23;94778.00;;;11.95;47.84
24280;BME280;12395;42.808;23.408;2023-04-27T08:26:48;94783.84;;;12.22;48.62
24280;BME280;12395;42.808;23.408;2023-04-27T08:29:14;94792.91;;;12.14;49.02
24280;BME280;12395;42.808;23.408;2023-04-27T08:31:39;94785.09;;;12.19;48.33
24280;BME280;12395;42.808;23.408;2023-04-27T08:34:04;94781.09;;;12.10;50.30
24280;BME280;12395;42.808;23.408;2023-04-27T08:36:30;94783.31;;;12.13;50.76
24280;BME280;12395;42.808;23.408;2023-04-27T08:38:56;94781.25;;;12.15;50.21
24280;BME280;12395;42.808;23.408;2023-04-27T08:41:22;94790.34;;;12.44;51.01
24280;BME280;12395;42.808;23.408;2023-04-27T08:43:51;94780.59;;;12.56;47.00
24280;BME280;12395;42.808;23.408;2023-04-27T08:46:22;94791.00;;;12.76;48.71
24280;BME280;12395;42.808;23.408;2023-04-27T08:48:49;94772.44;;;12.87;48.28
24280;BME280;12395;42.808;23.408;2023-04-27T08:51:15;94798.88;;;13.19;46.49
24280;BME280;12395;42.808;23.408;2023-04-27T08:56:13;94801.38;;;13.43;45.64
24280;BME280;12395;42.808;23.408;2023-04-27T08:58:38;94799.31;;;13.15;41.88
24280;BME280;12395;42.808;23.408;2023-04-27T09:01:05;94792.72;;;13.18;40.94
24280;BME280;12395;42.808;23.408;2023-04-27T09:03:34;94782.63;;;13.08;40.05
24280;BME280;12395;42.808;23.408;2023-04-27T09:06:00;94783.03;;;13.24;39.98
24280;BME280;12395;42.808;23.408;2023-04-27T09:08:26;94779.75;;;12.92;40.44
24280;BME280;12395;42.808;23.408;2023-04-27T09:10:52;94793.28;;;12.90;41.68
24280;BME280;12395;42.808;23.408;2023-04-27T09:13:19;94790.38;;;13.10;44.41
24280;BME280;12395;42.808;23.408;2023-04-27T09:15:50;94780.78;;;13.50;41.99
24280;BME280;12395;42.808;23.408;2023-04-27T09:18:16;94788.78;;;13.50;39.41
24280;BME280;12395;42.808;23.408;2023-04-27T09:20:44;94785.09;;;13.51;40.06
24280;BME280;12395;42.808;23.408;2023-04-27T09:23:10;94759.19;;;13.81;39.18
24280;BME280;12395;42.808;23.408;2023-04-27T09:25:35;94773.09;;;14.41;39.11
24280;BME280;12395;42.808;23.408;2023-04-27T09:28:00;94761.72;;;14.69;38.82
24280;BME280;12395;42.808;23.408;2023-04-27T09:30:27;94779.09;;;15.11;38.86
24280;BME280;12395;42.808;23.408;2023-04-27T09:32:58;94769.00;;;15.13;38.29
24280;BME280;12395;42.808;23.408;2023-04-27T09:35:27;94775.84;;;15.09;37.26
24280;BME280;12395;42.808;23.408;2023-04-27T09:37:54;94766.97;;;14.92;36.74
24280;BME280;12395;42.808;23.408;2023-04-27T09:40:21;94759.78;;;14.41;37.81
24280;BME280;12395;42.808;23.408;2023-04-27T09:42:58;94744.16;;;14.22;37.67
24280;BME280;12395;42.808;23.408;2023-04-27T09:45:26;94739.28;;;14.42;38.45
24280;BME280;12395;42.808;23.408;2023-04-27T09:47:52;94750.09;;;14.75;36.45
24280;BME280;12395;42.808;23.408;2023-04-27T09:50:18;94747.53;;;14.80;37.14
24280;BME280;12395;42.808;23.408;2023-04-27T09:52:45;94742.06;;;14.12;36.34
24280;BME280;12395;42.808;23.408;2023-04-27T09:55:15;94753.41;;;13.84;37.55
24280;BME280;12395;42.808;23.408;2023-04-27T10:00:41;94752.44;;;13.44;38.04
24280;BME280;12395;42.808;23.408;2023-04-27T10:08:37;94749.31;;;13.06;38.22
24280;BME280;12395;42.808;23.408;2023-04-27T10:11:13;94743.50;;;13.39;38.53
24280;BME280;12395;42.808;23.408;2023-04-27T10:13:50;94743.81;;;13.95;40.00
24280;BME280;12395;42.808;23.408;2023-04-27T10:16:16;94762.44;;;14.18;41.18
24280;BME280;12395;42.808;23.408;2023-04-27T10:18:50;94758.19;;;14.29;39.77
24280;BME280;12395;42.808;23.408;2023-04-27T10:21:16;94744.59;;;14.19;40.67
24280;BME280;12395;42.808;23.408;2023-04-27T10:23:46;94741.03;;;14.13;38.22
24280;BME280;12395;42.808;23.408;2023-04-27T10:26:21;94753.31;;;13.91;38.72
24280;BME280;12395;42.808;23.408;2023-04-27T10:31:29;94744.72;;;13.77;37.34
24280;BME280;12395;42.808;23.408;2023-04-27T10:34:14;94746.59;;;14.00;37.01
24280;BME280;12395;42.808;23.408;2023-04-27T10:36:39;94741.81;;;14.14;36.98
24280;BME280;12395;42.808;23.408;2023-04-27T10:39:19;94747.16;;;14.14;37.85
24280;BME280;12395;42.808;23.408;2023-04-27T10:41:51;94744.03;;;14.28;37.71
24280;BME280;12395;42.808;23.408;2023-04-27T10:44:29;94746.25;;;14.20;38.10
24280;BME280;12395;42.808;23.408;2023-04-27T10:46:56;94732.22;;;14.36;39.38
24280;BME280;12395;42.808;23.408;2023-04-27T10:49:26;94753.50;;;14.59;38.48
24280;BME280;12395;42.808;23.408;2023-04-27T10:51:51;94746.69;;;14.51;35.77
24280;BME280;12395;42.808;23.408;2023-04-27T10:54:17;94726.38;;;14.62;36.46
24280;BME280;12395;42.808;23.408;2023-04-27T10:56:43;94744.81;;;14.92;36.61
24280;BME280;12395;42.808;23.408;2023-04-27T10:59:09;94747.59;;;14.97;36.86
24280;BME280;12395;42.808;23.408;2023-04-27T11:01:35;94751.03;;;15.09;35.49
24280;BME280;12395;42.808;23.408;2023-04-27T11:04:01;94731.13;;;15.16;36.08
24280;BME280;12395;42.808;23.408;2023-04-27T11:06:28;94743.97;;;15.31;36.99
24280;BME280;12395;42.808;23.408;2023-04-27T11:08:55;94731.03;;;15.39;36.31
24280;BME280;12395;42.808;23.408;2023-04-27T11:11:21;94744.13;;;15.69;36.64
24280;BME280;12395;42.808;23.408;2023-04-27T11:13:49;94731.22;;;15.50;37.73
24280;BME280;12395;42.808;23.408;2023-04-27T11:16:17;94721.44;;;15.10;39.12
24280;BME280;12395;42.808;23.408;2023-04-27T11:18:44;94733.63;;;14.78;39.96
24280;BME280;12395;42.808;23.408;2023-04-27T11:21:17;94728.59;;;14.42;41.18
24280;BME280;12395;42.808;23.408;2023-04-27T11:23:43;94732.69;;;14.21;41.07
24280;BME280;12395;42.808;23.408;2023-04-27T11:26:16;94727.59;;;14.20;42.57
24280;BME280;12395;42.808;23.408;2023-04-27T11:28:44;94711.94;;;14.12;42.38
24280;BME280;12395;42.808;23.408;2023-04-27T11:31:10;94727.00;;;14.18;42.33
24280;BME280;12395;42.808;23.408;2023-04-27T11:33:35;94731.66;;;14.34;40.20
24280;BME280;12395;42.808;23.408;2023-04-27T11:36:15;94726.88;;;14.47;40.31
24280;BME280;12395;42.808;23.408;2023-04-27T11:38:41;94744.84;;;14.52;38.52
24280;BME280;12395;42.808;23.408;2023-04-27T11:41:06;94734.94;;;14.64;36.89
24280;BME280;12395;42.808;23.408;2023-04-27T11:43:32;94722.44;;;14.53;38.33
24280;BME280;12395;42.808;23.408;2023-04-27T11:46:02;94727.41;;;14.61;38.30
24280;BME280;12395;42.808;23.408;2023-04-27T11:48:28;94734.28;;;14.85;38.13
24280;BME280;12395;42.808;23.408;2023-04-27T11:50:57;94735.94;;;14.86;36.71
24280;BME280;12395;42.808;23.408;2023-04-27T11:53:35;94742.00;;;14.70;38.28
24280;BME280;12395;42.808;23.408;2023-04-27T11:56:02;94748.00;;;14.77;39.26
24280;BME280;12395;42.808;23.408;2023-04-27T11:58:32;94738.81;;;14.22;39.36
24280;BME280;12395;42.808;23.408;2023-04-27T12:00:59;94743.44;;;14.38;39.47
24280;BME280;12395;42.808;23.408;2023-04-27T12:03:24;94742.28;;;14.22;39.59
24280;BME280;12395;42.808;23.408;2023-04-27T12:05:51;94752.25;;;14.27;39.67
24280;BME280;12395;42.808;23.408;2023-04-27T12:08:17;94752.03;;;14.28;40.57
24280;BME280;12395;42.808;23.408;2023-04-27T12:10:43;94746.72;;;13.93;40.19
24280;BME280;12395;42.808;23.408;2023-04-27T12:13:09;94752.75;;;14.01;40.34
24280;BME280;12395;42.808;23.408;2023-04-27T12:15:35;94749.84;;;13.79;39.71
24280;BME280;12395;42.808;23.408;2023-04-27T12:18:01;94734.19;;;13.59;40.56
24280;BME280;12395;42.808;23.408;2023-04-27T12:20:26;94753.19;;;13.74;40.25
24280;BME280;12395;42.808;23.408;2023-04-27T12:22:53;94754.47;;;13.83;40.03
24280;BME280;12395;42.808;23.408;2023-04-27T12:25:19;94745.31;;;14.03;41.03
24280;BME280;12395;42.808;23.408;2023-04-27T12:27:45;94762.78;;;14.10;40.52
24280;BME280;12395;42.808;23.408;2023-04-27T12:30:12;94758.41;;;14.04;39.17
24280;BME280;12395;42.808;23.408;2023-04-27T12:32:39;94747.03;;;13.97;39.14
24280;BME280;12395;42.808;23.408;2023-04-27T12:35:08;94759.44;;;13.91;39.43
24280;BME280;12395;42.808;23.408;2023-04-27T12:37:35;94747.59;;;13.64;39.53
24280;BME280;12395;42.808;23.408;2023-04-27T12:40:01;94755.03;;;13.85;39.52
24280;BME280;12395;42.808;23.408;2023-04-27T12:42:26;94752.69;;;13.77;40.57
24280;BME280;12395;42.808;23.408;2023-04-27T12:44:52;94758.75;;;13.84;40.75
24280;BME280;12395;42.808;23.408;2023-04-27T12:47:20;94755.59;;;13.76;41.31
24280;BME280;12395;42.808;23.408;2023-04-27T12:49:45;94749.47;;;13.75;42.09
24280;BME280;12395;42.808;23.408;2023-04-27T12:52:11;94739.03;;;13.62;40.13
24280;BME280;12395;42.808;23.408;2023-04-27T12:54:37;94750.16;;;13.59;40.15
24280;BME280;12395;42.808;23.408;2023-04-27T12:57:02;94750.16;;;13.59;40.31
24280;BME280;12395;42.808;23.408;2023-04-27T12:59:37;94740.44;;;13.53;40.69
24280;BME280;12395;42.808;23.408;2023-04-27T13:02:03;94750.88;;;13.66;40.34